createdAt,value
2019-05-14T00:00:11.773Z,1.35
2019-05-14T00:02:41.376Z,1.22
2019-05-14T00:05:12.019Z,1.12
2019-05-14T00:07:41.432Z,1.40
2019-05-14T00:10:11.880Z,1.30
2019-05-14T00:12:41.879Z,1.50
2019-05-14T00:15:11.099Z,1.20
2019-05-14T00:17:41.652Z,1.20
2019-05-14T00:20:13.365Z,1.35
2019-05-14T00:22:41.653Z,1.10
2019-05-14T00:25:11.725Z,1.50
2019-05-14T00:27:41.468Z,1.40
2019-05-14T00:30:11.490Z,1.45
2019-05-14T00:32:41.353Z,1.40
2019-05-14T00:35:11.128Z,1.30
2019-05-14T00:37:41.431Z,1.10
2019-05-14T00:40:11.707Z,1.60
2019-05-14T00:42:41.460Z,1.40
2019-05-14T00:45:11.699Z,1.80
2019-05-14T00:47:41.756Z,1.55
2019-05-14T00:50:11.311Z,1.50
2019-05-14T00:52:42.211Z,1.60
2019-05-14T00:55:11.744Z,1.55
2019-05-14T00:57:42.613Z,1.32
2019-05-14T01:00:12.092Z,1.40
2019-05-14T01:02:41.632Z,1.50
2019-05-14T01:05:12.446Z,1.40
2019-05-14T01:07:42.284Z,1.55
2019-05-14T01:10:11.567Z,1.47
2019-05-14T01:12:41.350Z,1.40
2019-05-14T01:15:14.124Z,1.37
2019-05-14T01:17:42.140Z,1.80
2019-05-14T01:20:12.299Z,1.75
2019-05-14T01:22:42.293Z,1.70
2019-05-14T01:25:12.019Z,1.65
2019-05-14T01:27:41.361Z,1.65
2019-05-14T01:30:12.277Z,1.50
2019-05-14T01:32:42.022Z,1.62
2019-05-14T01:35:12.025Z,1.70
2019-05-14T01:37:41.592Z,1.47
2019-05-14T01:40:11.483Z,1.70
2019-05-14T01:42:41.550Z,1.70
2019-05-14T01:45:23.544Z,1.55
2019-05-14T01:47:41.443Z,1.87
2019-05-14T01:50:11.273Z,1.27
2019-05-14T01:52:41.477Z,1.72
2019-05-14T01:55:11.401Z,1.72
2019-05-14T01:57:42.273Z,1.40
2019-05-14T02:00:11.487Z,1.60
2019-05-14T02:02:41.826Z,1.98
2019-05-14T02:05:12.251Z,1.62
2019-05-14T02:07:42.032Z,1.85
2019-05-14T02:10:11.742Z,1.57
2019-05-14T02:12:42.366Z,1.77
2019-05-14T02:15:12.083Z,1.62
2019-05-14T02:17:41.405Z,2.02
2019-05-14T02:20:12.368Z,1.62
2019-05-14T02:22:41.675Z,1.90
2019-05-14T02:25:11.685Z,2.12
2019-05-14T02:27:41.442Z,2.37
2019-05-14T02:30:10.644Z,1.50
2019-05-14T02:32:40.638Z,1.67
2019-05-14T02:35:10.049Z,2.20
2019-05-14T02:37:40.173Z,1.77
2019-05-14T02:40:10.198Z,2.10
2019-05-14T02:42:40.071Z,1.67
2019-05-14T02:45:09.268Z,1.80
2019-05-14T02:47:39.668Z,1.60
2019-05-14T02:50:09.975Z,2.30
2019-05-14T02:52:40.226Z,1.98
2019-05-14T02:55:09.724Z,2.00
2019-05-14T02:57:39.403Z,1.82
2019-05-14T03:00:10.210Z,1.80
2019-05-14T03:02:40.425Z,2.00
2019-05-14T03:05:09.841Z,2.05
2019-05-14T03:07:39.362Z,2.02
2019-05-14T03:10:10.065Z,1.87
2019-05-14T03:12:39.574Z,1.55
2019-05-14T03:15:09.632Z,2.02
2019-05-14T03:17:40.398Z,2.12
2019-05-14T03:20:09.320Z,1.87
2019-05-14T03:22:46.223Z,1.67
2019-05-14T03:25:10.190Z,1.90
2019-05-14T03:27:40.507Z,1.82
2019-05-14T03:30:12.812Z,1.77
2019-05-14T03:32:42.483Z,1.55
2019-05-14T03:35:13.151Z,1.70
2019-05-14T03:37:39.917Z,1.50
2019-05-14T03:40:09.481Z,1.50
2019-05-14T03:42:39.925Z,2.02
2019-05-14T03:45:08.769Z,2.00
2019-05-14T03:47:39.388Z,1.60
2019-05-14T03:50:10.274Z,1.90
2019-05-14T03:52:39.956Z,2.10
2019-05-14T03:55:09.328Z,1.75
2019-05-14T03:57:39.812Z,1.98
2019-05-14T04:00:10.325Z,2.35
2019-05-14T04:02:39.180Z,1.95
2019-05-14T04:05:09.494Z,2.00
2019-05-14T04:07:39.326Z,2.33
2019-05-14T04:10:10.261Z,2.12
2019-05-14T04:12:40.474Z,2.10
2019-05-14T04:15:09.846Z,2.22
2019-05-14T04:17:42.315Z,2.20
2019-05-14T04:20:09.775Z,1.95
2019-05-14T04:22:40.242Z,2.25
2019-05-14T04:25:11.131Z,1.92
2019-05-14T04:27:40.404Z,1.87
2019-05-14T08:48:40.686Z,1.60
2019-05-14T08:51:10.065Z,2.00
2019-05-14T08:53:38.864Z,1.80
2019-05-14T08:56:08.322Z,1.87
2019-05-14T08:58:38.579Z,2.10
2019-05-14T09:01:08.225Z,2.00
2019-05-14T09:03:39.241Z,2.10
2019-05-14T09:06:08.919Z,2.10
2019-05-14T09:08:38.954Z,1.85
2019-05-14T09:11:09.493Z,1.90
2019-05-14T09:13:38.323Z,2.05
2019-05-14T09:16:09.272Z,1.72
2019-05-14T09:18:39.000Z,1.87
2019-05-14T09:21:08.735Z,2.55
2019-05-14T09:23:39.181Z,2.02
2019-05-14T09:26:09.620Z,5.17
2019-05-14T09:28:39.285Z,2.02
2019-05-14T09:31:08.566Z,1.85
2019-05-14T09:33:38.915Z,2.20
2019-05-14T09:36:18.143Z,2.15
2019-05-14T09:38:42.114Z,2.20
2019-05-14T09:41:14.769Z,1.90
2019-05-14T09:43:39.234Z,2.12
2019-05-14T09:46:08.970Z,2.10
2019-05-14T09:48:38.047Z,1.92
2019-05-14T09:51:09.071Z,1.80
2019-05-14T09:53:38.310Z,1.80
2019-05-14T09:56:09.181Z,1.85
2019-05-14T09:58:38.771Z,2.00
2019-05-14T10:01:08.470Z,2.12
2019-05-14T10:03:39.035Z,1.80
2019-05-14T10:06:09.778Z,1.98
2019-05-14T10:08:39.083Z,1.92
2019-05-14T10:11:07.506Z,2.30
2019-05-14T10:13:35.989Z,2.22
2019-05-14T10:16:04.541Z,2.12
2019-05-14T10:18:32.835Z,1.80
2019-05-14T10:21:01.294Z,2.12
2019-05-14T10:23:29.638Z,2.08
2019-05-14T10:25:58.250Z,2.30
2019-05-14T10:28:28.799Z,2.17
2019-05-14T10:30:59.433Z,1.75
2019-05-14T10:33:28.763Z,1.42
2019-05-14T10:35:58.805Z,2.00
2019-05-14T10:38:29.349Z,1.80
2019-05-14T10:40:58.432Z,1.65
2019-05-14T10:43:28.793Z,1.65
2019-05-14T10:45:58.048Z,2.10
2019-05-14T10:48:28.944Z,1.70
2019-05-14T10:51:02.835Z,1.47
2019-05-14T10:53:29.042Z,1.47
2019-05-14T10:55:58.285Z,1.80
2019-05-14T10:58:29.144Z,1.50
2019-05-14T11:00:58.992Z,1.60
2019-05-14T11:03:29.966Z,1.60
2019-05-14T11:05:58.788Z,1.80
2019-05-14T11:08:29.679Z,2.20
2019-05-14T11:11:03.219Z,1.62
2019-05-14T11:13:29.251Z,1.85
2019-05-14T11:15:59.561Z,1.62
2019-05-14T11:18:29.150Z,1.40
2019-05-14T11:21:18.089Z,2.02
2019-05-14T11:23:29.699Z,2.00
2019-05-14T11:25:58.138Z,1.72
2019-05-14T11:28:28.625Z,1.75
2019-05-14T11:30:56.623Z,1.90
2019-05-14T11:33:25.047Z,1.60
2019-05-14T11:35:53.330Z,1.72
2019-05-14T11:38:31.821Z,1.55
2019-05-14T11:40:51.846Z,1.80
2019-05-14T11:43:20.179Z,1.80
2019-05-14T11:45:48.709Z,2.00
2019-05-14T11:48:19.263Z,1.57
2019-05-14T11:50:49.132Z,1.75
2019-05-14T11:53:20.057Z,1.90
2019-05-14T11:55:50.317Z,1.70
2019-05-14T17:11:14.016Z,0.70
2019-05-14T17:13:42.354Z,0.82
2019-05-14T17:16:10.646Z,0.93
2019-05-14T17:18:38.984Z,0.72
2019-05-14T17:21:09.179Z,0.80
2019-05-14T17:23:39.275Z,0.93
2019-05-14T17:26:08.888Z,1.07
2019-05-14T17:28:40.142Z,0.90
2019-05-14T17:31:07.617Z,0.80
2019-05-14T17:33:39.158Z,0.80
2019-05-14T17:36:06.387Z,0.78
2019-05-14T17:38:34.716Z,0.60
2019-05-14T17:41:03.023Z,0.90
2019-05-14T17:43:31.412Z,0.70
2019-05-14T17:45:59.787Z,0.70
2019-05-14T17:48:28.529Z,0.80
2019-05-14T17:50:58.948Z,0.78
2019-05-14T17:53:29.104Z,0.62
2019-05-14T17:55:59.299Z,0.85
2019-05-14T17:58:28.761Z,0.75
2019-05-14T18:00:58.161Z,0.95
2019-05-14T18:03:28.858Z,0.80
2019-05-14T18:05:58.142Z,0.95
2019-05-14T18:08:29.770Z,0.70
2019-05-14T18:10:59.105Z,0.90
2019-05-14T18:13:26.624Z,0.80
2019-05-14T18:15:54.962Z,0.65
2019-05-14T18:18:23.304Z,1.10
2019-05-14T18:20:51.589Z,1.30
2019-05-14T18:23:20.135Z,0.90
2019-05-14T18:26:03.801Z,2.60
2019-05-14T18:28:18.800Z,1.22
2019-05-14T18:30:49.086Z,0.90
2019-05-14T18:33:18.778Z,0.70
2019-05-14T18:35:50.207Z,0.98
2019-05-14T18:38:19.405Z,0.80
2019-05-14T18:40:49.535Z,0.90
2019-05-14T18:43:18.810Z,0.88
2019-05-14T18:45:48.095Z,1.10
2019-05-14T18:48:19.225Z,0.85
2019-05-14T18:50:48.460Z,0.78
2019-05-14T18:53:18.935Z,0.70
2019-05-14T18:55:48.938Z,1.00
2019-05-14T18:58:19.546Z,0.93
2019-05-14T19:00:47.872Z,0.80
2019-05-14T19:03:17.025Z,1.10
2019-05-14T19:05:45.407Z,0.72
2019-05-14T19:08:13.910Z,0.78
2019-05-14T19:10:42.429Z,0.70
2019-05-14T19:13:10.847Z,0.60
2019-05-14T19:15:42.195Z,0.72
2019-05-14T19:18:10.637Z,0.75
2019-05-14T19:20:39.313Z,1.07
2019-05-14T19:23:08.186Z,0.80
2019-05-14T19:25:38.790Z,0.80
2019-05-14T19:28:08.837Z,0.88
2019-05-14T19:30:38.147Z,0.85
2019-05-14T19:33:08.524Z,0.85
2019-05-14T19:35:39.268Z,0.80
2019-05-14T19:40:39.168Z,0.80
2019-05-14T19:43:09.436Z,0.70
2019-05-14T19:45:38.878Z,1.00
2019-05-14T19:48:08.160Z,0.95
2019-05-14T19:50:38.631Z,0.78
2019-05-14T19:53:08.920Z,0.88
2019-05-14T19:55:39.032Z,1.25
2019-05-14T19:58:07.082Z,0.98
2019-05-14T20:00:38.054Z,0.75
2019-05-14T20:03:05.636Z,0.90
2019-05-14T20:05:34.003Z,1.32
2019-05-14T20:08:02.417Z,0.90
2019-05-14T20:10:30.773Z,1.20
2019-05-14T20:12:59.331Z,0.80
2019-05-14T20:15:27.829Z,1.07
2019-05-14T20:17:58.195Z,1.10
2019-05-14T20:20:28.841Z,0.88
2019-05-14T20:22:59.001Z,1.10
2019-05-14T20:25:28.051Z,0.90
2019-05-14T20:27:58.594Z,0.80
2019-05-14T20:30:29.243Z,0.82
2019-05-14T20:32:59.181Z,1.02
2019-05-14T20:35:34.327Z,1.07
2019-05-14T20:37:58.563Z,1.10
2019-05-14T20:40:28.443Z,1.30
2019-05-14T20:42:58.942Z,1.40
2019-05-14T20:45:28.935Z,1.30
2019-05-14T20:47:58.571Z,1.02
2019-05-14T20:50:28.960Z,0.90
2019-05-14T20:52:59.201Z,1.10
2019-05-14T20:55:28.592Z,1.40
2019-05-14T20:57:58.758Z,1.10
2019-05-14T21:00:29.211Z,1.30
2019-05-14T21:02:59.555Z,1.17
2019-05-14T21:05:28.711Z,1.57
2019-05-14T21:07:59.049Z,1.30
2019-05-14T21:10:29.196Z,1.50
2019-05-14T21:12:58.093Z,1.30
2019-05-14T21:15:28.515Z,1.17
2019-05-14T21:17:59.275Z,1.15
2019-05-14T21:20:28.246Z,1.40
2019-05-14T21:22:58.473Z,1.30
2019-05-14T21:25:29.287Z,1.20
2019-05-14T21:27:58.703Z,1.25
2019-05-14T21:30:29.621Z,2.27
2019-05-14T21:33:00.663Z,3.10
2019-05-14T21:35:29.303Z,1.50
2019-05-14T21:37:59.406Z,1.30
2019-05-14T21:40:29.213Z,1.57
2019-05-14T21:42:58.064Z,1.60
2019-05-14T21:45:26.414Z,1.30
2019-05-14T21:47:54.753Z,1.30
2019-05-14T21:50:23.127Z,1.55
2019-05-14T21:52:51.599Z,1.20
2019-05-14T21:55:20.039Z,1.60
2019-05-14T21:57:56.213Z,1.72
2019-05-14T22:00:21.627Z,1.47
2019-05-14T22:02:50.075Z,1.42
2019-05-14T22:05:18.955Z,1.70
2019-05-14T22:07:48.523Z,1.27
2019-05-14T22:10:19.038Z,1.40
2019-05-14T22:12:48.724Z,1.50
2019-05-14T22:15:18.401Z,1.20
2019-05-14T22:17:48.985Z,1.62
2019-05-14T22:20:19.253Z,1.60
2019-05-14T22:22:48.350Z,1.40
2019-05-14T22:25:18.750Z,1.07
2019-05-14T22:27:48.370Z,1.30
2019-05-14T22:30:18.230Z,1.22
2019-05-14T22:32:47.221Z,1.57
2019-05-14T22:35:16.080Z,1.75
2019-05-14T22:37:44.393Z,1.40
2019-05-14T22:40:14.977Z,1.27
2019-05-14T22:42:43.296Z,1.57
2019-05-14T22:45:12.050Z,1.30
2019-05-14T22:47:40.665Z,1.42
2019-05-14T22:50:09.257Z,1.52
2019-05-14T22:52:38.652Z,1.42
2019-05-14T22:55:09.111Z,1.30
2019-05-14T22:57:39.233Z,1.65
2019-05-14T23:00:09.263Z,1.40
2019-05-14T23:02:38.280Z,1.67
2019-05-14T23:05:09.609Z,1.27
2019-05-14T23:07:38.528Z,1.20
2019-05-14T23:10:09.917Z,1.00
2019-05-14T23:12:38.750Z,1.35
2019-05-14T23:15:07.442Z,1.25
2019-05-14T23:17:35.785Z,1.30
2019-05-14T23:20:05.835Z,1.42
2019-05-14T23:22:35.115Z,1.40
2019-05-14T23:25:04.409Z,1.10
2019-05-14T23:27:32.742Z,1.22
2019-05-14T23:30:01.057Z,1.35
2019-05-14T23:32:29.346Z,1.27
2019-05-14T23:34:58.434Z,1.42
2019-05-14T23:37:29.040Z,1.07
2019-05-14T23:39:58.554Z,1.65
2019-05-14T23:42:27.936Z,1.37
2019-05-14T23:44:58.408Z,1.20
2019-05-14T23:47:28.750Z,1.17
2019-05-14T23:49:58.394Z,1.20
2019-05-14T23:52:29.358Z,1.52
2019-05-14T23:54:56.843Z,1.60
2019-05-14T23:57:25.142Z,1.40
2019-05-14T23:59:53.449Z,1.30
